sensor_id;sensor_type;location;lat;lon;timestamp;P1;durP1;ratioP1;P2;durP2;ratioP2
52718;SDS011;38616;42.140;24.760;2024-03-02T00:02:39;33.20;;;14.88;;
52718;SDS011;38616;42.140;24.760;2024-03-02T00:05:06;33.70;;;15.90;;
52718;SDS011;38616;42.140;24.760;2024-03-02T00:07:34;36.38;;;14.95;;
52718;SDS011;38616;42.140;24.760;2024-03-02T00:10:00;33.03;;;16.73;;
52718;SDS011;38616;42.140;24.760;2024-03-02T00:12:26;38.50;;;16.25;;
52718;SDS011;38616;42.140;24.760;2024-03-02T00:14:51;34.88;;;16.45;;
52718;SDS011;38616;42.140;24.760;2024-03-02T00:17:24;37.13;;;16.40;;
52718;SDS011;38616;42.140;24.760;2024-03-02T00:19:53;42.97;;;17.45;;
52718;SDS011;38616;42.140;24.760;2024-03-02T00:22:18;34.40;;;16.10;;
52718;SDS011;38616;42.140;24.760;2024-03-02T00:24:44;39.10;;;16.15;;
52718;SDS011;38616;42.140;24.760;2024-03-02T00:27:09;37.30;;;16.60;;
52718;SDS011;38616;42.140;24.760;2024-03-02T00:29:40;35.40;;;16.05;;
52718;SDS011;38616;42.140;24.760;2024-03-02T00:32:12;43.65;;;18.05;;
52718;SDS011;38616;42.140;24.760;2024-03-02T00:34:40;39.63;;;17.50;;
52718;SDS011;38616;42.140;24.760;2024-03-02T00:37:05;36.17;;;17.55;;
52718;SDS011;38616;42.140;24.760;2024-03-02T00:39:31;37.67;;;17.75;;
52718;SDS011;38616;42.140;24.760;2024-03-02T00:41:57;35.75;;;16.88;;
52718;SDS011;38616;42.140;24.760;2024-03-02T00:44:23;39.50;;;17.90;;
52718;SDS011;38616;42.140;24.760;2024-03-02T00:46:51;35.42;;;16.80;;
52718;SDS011;38616;42.140;24.760;2024-03-02T00:49:22;36.83;;;16.75;;
52718;SDS011;38616;42.140;24.760;2024-03-02T00:51:52;47.35;;;18.98;;
52718;SDS011;38616;42.140;24.760;2024-03-02T00:54:22;45.22;;;17.98;;
52718;SDS011;38616;42.140;24.760;2024-03-02T00:56:51;36.45;;;18.05;;
52718;SDS011;38616;42.140;24.760;2024-03-02T00:59:17;40.90;;;19.63;;
52718;SDS011;38616;42.140;24.760;2024-03-02T01:01:43;46.67;;;18.23;;
52718;SDS011;38616;42.140;24.760;2024-03-02T01:04:09;43.03;;;19.38;;
52718;SDS011;38616;42.140;24.760;2024-03-02T01:06:35;40.70;;;18.33;;
52718;SDS011;38616;42.140;24.760;2024-03-02T01:09:00;52.45;;;21.50;;
52718;SDS011;38616;42.140;24.760;2024-03-02T01:11:26;45.13;;;20.88;;
52718;SDS011;38616;42.140;24.760;2024-03-02T01:13:52;47.35;;;21.15;;
52718;SDS011;38616;42.140;24.760;2024-03-02T01:16:18;50.92;;;20.17;;
52718;SDS011;38616;42.140;24.760;2024-03-02T01:18:43;49.33;;;21.25;;
52718;SDS011;38616;42.140;24.760;2024-03-02T01:21:09;42.75;;;21.55;;
52718;SDS011;38616;42.140;24.760;2024-03-02T01:23:35;56.92;;;21.90;;
52718;SDS011;38616;42.140;24.760;2024-03-02T01:26:00;48.80;;;22.20;;
52718;SDS011;38616;42.140;24.760;2024-03-02T01:28:26;55.05;;;22.55;;
52718;SDS011;38616;42.140;24.760;2024-03-02T01:30:51;51.40;;;21.23;;
52718;SDS011;38616;42.140;24.760;2024-03-02T01:33:17;64.15;;;24.27;;
52718;SDS011;38616;42.140;24.760;2024-03-02T01:35:43;59.28;;;24.10;;
52718;SDS011;38616;42.140;24.760;2024-03-02T01:38:09;54.03;;;22.40;;
52718;SDS011;38616;42.140;24.760;2024-03-02T01:40:35;60.42;;;23.63;;
52718;SDS011;38616;42.140;24.760;2024-03-02T01:43:01;61.42;;;24.80;;
52718;SDS011;38616;42.140;24.760;2024-03-02T01:45:27;58.97;;;25.05;;
52718;SDS011;38616;42.140;24.760;2024-03-02T01:47:53;60.70;;;22.73;;
52718;SDS011;38616;42.140;24.760;2024-03-02T01:50:29;67.07;;;23.95;;
52718;SDS011;38616;42.140;24.760;2024-03-02T01:52:58;56.92;;;24.83;;
52718;SDS011;38616;42.140;24.760;2024-03-02T01:55:24;56.08;;;22.95;;
52718;SDS011;38616;42.140;24.760;2024-03-02T01:57:50;61.05;;;23.42;;
52718;SDS011;38616;42.140;24.760;2024-03-02T02:00:18;64.85;;;23.02;;
52718;SDS011;38616;42.140;24.760;2024-03-02T02:02:45;61.25;;;22.90;;
52718;SDS011;38616;42.140;24.760;2024-03-02T02:05:13;60.72;;;22.45;;
52718;SDS011;38616;42.140;24.760;2024-03-02T02:07:40;48.13;;;21.30;;
52718;SDS011;38616;42.140;24.760;2024-03-02T02:10:07;53.58;;;21.35;;
52718;SDS011;38616;42.140;24.760;2024-03-02T02:12:32;45.70;;;20.95;;
52718;SDS011;38616;42.140;24.760;2024-03-02T02:14:58;45.78;;;20.60;;
52718;SDS011;38616;42.140;24.760;2024-03-02T02:17:24;52.85;;;19.23;;
52718;SDS011;38616;42.140;24.760;2024-03-02T02:19:49;47.90;;;19.17;;
52718;SDS011;38616;42.140;24.760;2024-03-02T02:22:18;40.25;;;17.45;;
52718;SDS011;38616;42.140;24.760;2024-03-02T02:24:43;41.40;;;18.65;;
52718;SDS011;38616;42.140;24.760;2024-03-02T02:27:12;44.78;;;17.35;;
52718;SDS011;38616;42.140;24.760;2024-03-02T02:32:05;42.00;;;16.60;;
52718;SDS011;38616;42.140;24.760;2024-03-02T02:34:31;42.05;;;17.42;;
52718;SDS011;38616;42.140;24.760;2024-03-02T02:36:56;38.90;;;17.25;;
52718;SDS011;38616;42.140;24.760;2024-03-02T02:39:22;36.28;;;15.90;;
52718;SDS011;38616;42.140;24.760;2024-03-02T02:41:48;38.90;;;17.38;;
52718;SDS011;38616;42.140;24.760;2024-03-02T02:44:13;40.65;;;18.27;;
52718;SDS011;38616;42.140;24.760;2024-03-02T02:46:39;45.10;;;17.55;;
52718;SDS011;38616;42.140;24.760;2024-03-02T02:49:06;40.42;;;17.30;;
52718;SDS011;38616;42.140;24.760;2024-03-02T02:51:31;37.88;;;18.00;;
52718;SDS011;38616;42.140;24.760;2024-03-02T02:53:57;38.67;;;18.52;;
52718;SDS011;38616;42.140;24.760;2024-03-02T02:56:22;40.33;;;18.30;;
52718;SDS011;38616;42.140;24.760;2024-03-02T02:58:48;40.15;;;17.67;;
52718;SDS011;38616;42.140;24.760;2024-03-02T03:01:14;41.70;;;17.70;;
52718;SDS011;38616;42.140;24.760;2024-03-02T03:03:43;40.05;;;17.42;;
52718;SDS011;38616;42.140;24.760;2024-03-02T03:06:09;40.60;;;18.70;;
52718;SDS011;38616;42.140;24.760;2024-03-02T03:08:34;39.40;;;18.75;;
52718;SDS011;38616;42.140;24.760;2024-03-02T03:11:00;37.80;;;19.33;;
52718;SDS011;38616;42.140;24.760;2024-03-02T03:13:25;43.63;;;17.48;;
52718;SDS011;38616;42.140;24.760;2024-03-02T03:15:51;41.55;;;16.65;;
52718;SDS011;38616;42.140;24.760;2024-03-02T03:18:17;35.55;;;18.80;;
52718;SDS011;38616;42.140;24.760;2024-03-02T03:20:43;39.53;;;17.92;;
52718;SDS011;38616;42.140;24.760;2024-03-02T03:23:09;45.53;;;17.45;;
52718;SDS011;38616;42.140;24.760;2024-03-02T03:25:34;37.47;;;17.80;;
52718;SDS011;38616;42.140;24.760;2024-03-02T03:28:00;35.53;;;16.50;;
52718;SDS011;38616;42.140;24.760;2024-03-02T03:30:26;37.17;;;16.92;;
52718;SDS011;38616;42.140;24.760;2024-03-02T03:32:52;36.47;;;16.83;;
52718;SDS011;38616;42.140;24.760;2024-03-02T03:35:17;40.15;;;19.25;;
52718;SDS011;38616;42.140;24.760;2024-03-02T03:37:43;40.92;;;17.65;;
52718;SDS011;38616;42.140;24.760;2024-03-02T03:40:09;38.90;;;17.48;;
52718;SDS011;38616;42.140;24.760;2024-03-02T03:42:38;34.03;;;16.92;;
52718;SDS011;38616;42.140;24.760;2024-03-02T03:45:04;41.08;;;17.35;;
52718;SDS011;38616;42.140;24.760;2024-03-02T03:47:33;44.83;;;19.23;;
52718;SDS011;38616;42.140;24.760;2024-03-02T03:49:59;34.67;;;17.88;;
52718;SDS011;38616;42.140;24.760;2024-03-02T03:52:25;41.08;;;18.45;;
52718;SDS011;38616;42.140;24.760;2024-03-02T03:54:51;43.65;;;21.35;;
52718;SDS011;38616;42.140;24.760;2024-03-02T03:57:16;47.47;;;19.58;;
52718;SDS011;38616;42.140;24.760;2024-03-02T03:59:42;42.22;;;18.13;;
52718;SDS011;38616;42.140;24.760;2024-03-02T04:02:09;36.90;;;18.23;;
52718;SDS011;38616;42.140;24.760;2024-03-02T04:04:35;33.53;;;16.83;;
52718;SDS011;38616;42.140;24.760;2024-03-02T04:07:00;42.30;;;17.23;;
52718;SDS011;38616;42.140;24.760;2024-03-02T04:09:26;39.92;;;18.40;;
52718;SDS011;38616;42.140;24.760;2024-03-02T04:11:52;35.90;;;17.85;;
52718;SDS011;38616;42.140;24.760;2024-03-02T04:14:18;41.53;;;19.58;;
52718;SDS011;38616;42.140;24.760;2024-03-02T04:16:43;41.35;;;19.10;;
52718;SDS011;38616;42.140;24.760;2024-03-02T04:19:09;40.58;;;18.73;;
52718;SDS011;38616;42.140;24.760;2024-03-02T04:21:36;45.75;;;18.63;;
52718;SDS011;38616;42.140;24.760;2024-03-02T04:24:02;36.65;;;18.13;;
52718;SDS011;38616;42.140;24.760;2024-03-02T04:26:28;38.45;;;17.13;;
52718;SDS011;38616;42.140;24.760;2024-03-02T04:28:54;39.90;;;17.80;;
52718;SDS011;38616;42.140;24.760;2024-03-02T04:31:20;34.28;;;16.35;;
52718;SDS011;38616;42.140;24.760;2024-03-02T04:33:45;46.38;;;17.10;;
52718;SDS011;38616;42.140;24.760;2024-03-02T04:36:11;50.35;;;22.27;;
52718;SDS011;38616;42.140;24.760;2024-03-02T04:38:37;39.67;;;18.83;;
52718;SDS011;38616;42.140;24.760;2024-03-02T04:41:06;42.20;;;19.15;;
52718;SDS011;38616;42.140;24.760;2024-03-02T04:43:32;35.22;;;17.63;;
52718;SDS011;38616;42.140;24.760;2024-03-02T04:45:59;34.53;;;16.75;;
52718;SDS011;38616;42.140;24.760;2024-03-02T04:48:25;35.35;;;17.40;;
52718;SDS011;38616;42.140;24.760;2024-03-02T04:50:51;38.42;;;17.13;;
52718;SDS011;38616;42.140;24.760;2024-03-02T04:53:16;35.55;;;16.67;;
52718;SDS011;38616;42.140;24.760;2024-03-02T04:55:42;45.28;;;19.98;;
52718;SDS011;38616;42.140;24.760;2024-03-02T04:58:07;38.85;;;18.13;;
52718;SDS011;38616;42.140;24.760;2024-03-02T05:00:33;42.47;;;19.02;;
52718;SDS011;38616;42.140;24.760;2024-03-02T05:02:59;47.30;;;20.30;;
52718;SDS011;38616;42.140;24.760;2024-03-02T05:05:25;49.15;;;18.35;;
52718;SDS011;38616;42.140;24.760;2024-03-02T05:07:51;44.20;;;18.88;;
52718;SDS011;38616;42.140;24.760;2024-03-02T05:10:17;40.67;;;18.33;;
52718;SDS011;38616;42.140;24.760;2024-03-02T05:12:42;47.00;;;21.02;;
52718;SDS011;38616;42.140;24.760;2024-03-02T05:15:11;40.50;;;18.33;;
52718;SDS011;38616;42.140;24.760;2024-03-02T05:17:39;38.80;;;17.25;;
52718;SDS011;38616;42.140;24.760;2024-03-02T05:20:06;42.50;;;17.42;;
52718;SDS011;38616;42.140;24.760;2024-03-02T05:22:35;43.88;;;16.67;;
52718;SDS011;38616;42.140;24.760;2024-03-02T05:25:02;37.60;;;16.17;;
52718;SDS011;38616;42.140;24.760;2024-03-02T05:27:31;34.80;;;15.60;;
52718;SDS011;38616;42.140;24.760;2024-03-02T05:29:57;38.95;;;17.40;;
52718;SDS011;38616;42.140;24.760;2024-03-02T05:32:23;37.63;;;16.60;;
52718;SDS011;38616;42.140;24.760;2024-03-02T05:34:49;32.10;;;15.02;;
52718;SDS011;38616;42.140;24.760;2024-03-02T05:37:16;32.08;;;16.42;;
52718;SDS011;38616;42.140;24.760;2024-03-02T05:39:41;34.13;;;15.90;;
52718;SDS011;38616;42.140;24.760;2024-03-02T05:42:08;34.72;;;16.15;;
52718;SDS011;38616;42.140;24.760;2024-03-02T05:44:34;44.10;;;17.60;;
52718;SDS011;38616;42.140;24.760;2024-03-02T05:47:00;34.65;;;17.27;;
52718;SDS011;38616;42.140;24.760;2024-03-02T05:49:25;49.33;;;21.75;;
52718;SDS011;38616;42.140;24.760;2024-03-02T05:51:51;33.50;;;17.63;;
52718;SDS011;38616;42.140;24.760;2024-03-02T05:54:16;38.65;;;20.13;;
52718;SDS011;38616;42.140;24.760;2024-03-02T05:56:42;36.40;;;17.40;;
52718;SDS011;38616;42.140;24.760;2024-03-02T05:59:07;37.47;;;17.63;;
52718;SDS011;38616;42.140;24.760;2024-03-02T06:01:42;46.60;;;22.38;;
52718;SDS011;38616;42.140;24.760;2024-03-02T06:04:12;35.28;;;16.88;;
52718;SDS011;38616;42.140;24.760;2024-03-02T06:06:38;35.50;;;18.58;;
52718;SDS011;38616;42.140;24.760;2024-03-02T06:09:05;36.90;;;17.15;;
52718;SDS011;38616;42.140;24.760;2024-03-02T06:11:37;35.38;;;15.38;;
52718;SDS011;38616;42.140;24.760;2024-03-02T06:14:03;34.72;;;15.77;;
52718;SDS011;38616;42.140;24.760;2024-03-02T06:16:30;28.15;;;13.85;;
52718;SDS011;38616;42.140;24.760;2024-03-02T06:18:55;30.80;;;14.63;;
52718;SDS011;38616;42.140;24.760;2024-03-02T06:21:26;30.97;;;14.87;;
52718;SDS011;38616;42.140;24.760;2024-03-02T06:23:52;30.90;;;15.38;;
52718;SDS011;38616;42.140;24.760;2024-03-02T06:26:17;26.40;;;13.30;;
52718;SDS011;38616;42.140;24.760;2024-03-02T06:28:43;28.80;;;13.88;;
52718;SDS011;38616;42.140;24.760;2024-03-02T06:31:09;41.15;;;20.85;;
52718;SDS011;38616;42.140;24.760;2024-03-02T06:33:35;32.72;;;15.70;;
52718;SDS011;38616;42.140;24.760;2024-03-02T06:36:01;30.80;;;15.23;;
52718;SDS011;38616;42.140;24.760;2024-03-02T06:38:27;29.42;;;14.23;;
52718;SDS011;38616;42.140;24.760;2024-03-02T06:40:52;37.50;;;15.20;;
52718;SDS011;38616;42.140;24.760;2024-03-02T06:43:18;27.25;;;13.48;;
52718;SDS011;38616;42.140;24.760;2024-03-02T06:45:48;33.30;;;16.50;;
52718;SDS011;38616;42.140;24.760;2024-03-02T06:48:14;28.25;;;12.68;;
52718;SDS011;38616;42.140;24.760;2024-03-02T06:50:43;26.17;;;13.15;;
52718;SDS011;38616;42.140;24.760;2024-03-02T06:53:09;28.00;;;13.60;;
52718;SDS011;38616;42.140;24.760;2024-03-02T06:55:34;26.13;;;13.23;;
52718;SDS011;38616;42.140;24.760;2024-03-02T06:58:00;28.15;;;13.57;;
52718;SDS011;38616;42.140;24.760;2024-03-02T07:00:25;24.13;;;11.32;;
52718;SDS011;38616;42.140;24.760;2024-03-02T07:02:51;26.83;;;12.50;;
52718;SDS011;38616;42.140;24.760;2024-03-02T07:05:16;25.50;;;11.07;;
52718;SDS011;38616;42.140;24.760;2024-03-02T07:07:42;23.48;;;11.55;;
52718;SDS011;38616;42.140;24.760;2024-03-02T07:10:07;20.70;;;10.18;;
52718;SDS011;38616;42.140;24.760;2024-03-02T07:12:33;24.88;;;11.07;;
52718;SDS011;38616;42.140;24.760;2024-03-02T07:14:59;29.40;;;15.23;;
52718;SDS011;38616;42.140;24.760;2024-03-02T07:17:30;22.80;;;11.27;;
52718;SDS011;38616;42.140;24.760;2024-03-02T07:19:57;38.80;;;13.18;;
52718;SDS011;38616;42.140;24.760;2024-03-02T07:22:23;27.42;;;12.65;;
52718;SDS011;38616;42.140;24.760;2024-03-02T07:24:49;25.42;;;11.25;;
52718;SDS011;38616;42.140;24.760;2024-03-02T07:27:14;26.10;;;12.73;;
52718;SDS011;38616;42.140;24.760;2024-03-02T07:29:41;34.47;;;16.73;;
52718;SDS011;38616;42.140;24.760;2024-03-02T07:32:07;45.90;;;23.88;;
52718;SDS011;38616;42.140;24.760;2024-03-02T07:34:33;34.60;;;18.52;;
52718;SDS011;38616;42.140;24.760;2024-03-02T07:36:59;39.38;;;19.05;;
52718;SDS011;38616;42.140;24.760;2024-03-02T07:39:25;32.17;;;14.63;;
52718;SDS011;38616;42.140;24.760;2024-03-02T07:41:51;28.63;;;15.23;;
52718;SDS011;38616;42.140;24.760;2024-03-02T07:44:17;30.60;;;13.50;;
52718;SDS011;38616;42.140;24.760;2024-03-02T07:46:47;22.20;;;11.88;;
52718;SDS011;38616;42.140;24.760;2024-03-02T07:49:15;27.98;;;12.75;;
52718;SDS011;38616;42.140;24.760;2024-03-02T07:51:41;23.92;;;11.35;;
52718;SDS011;38616;42.140;24.760;2024-03-02T07:54:06;28.67;;;12.90;;
52718;SDS011;38616;42.140;24.760;2024-03-02T07:56:32;23.92;;;11.15;;
52718;SDS011;38616;42.140;24.760;2024-03-02T07:58:58;21.13;;;10.00;;
52718;SDS011;38616;42.140;24.760;2024-03-02T08:01:29;25.80;;;13.15;;
52718;SDS011;38616;42.140;24.760;2024-03-02T08:03:55;26.83;;;12.18;;
52718;SDS011;38616;42.140;24.760;2024-03-02T08:06:23;24.45;;;11.90;;
52718;SDS011;38616;42.140;24.760;2024-03-02T08:08:53;24.67;;;11.20;;
52718;SDS011;38616;42.140;24.760;2024-03-02T08:11:20;24.67;;;11.80;;
52718;SDS011;38616;42.140;24.760;2024-03-02T08:13:48;22.08;;;11.10;;
52718;SDS011;38616;42.140;24.760;2024-03-02T08:16:14;33.38;;;17.52;;
52718;SDS011;38616;42.140;24.760;2024-03-02T08:18:41;25.47;;;13.73;;
52718;SDS011;38616;42.140;24.760;2024-03-02T08:21:07;25.05;;;13.43;;
52718;SDS011;38616;42.140;24.760;2024-03-02T08:23:33;18.58;;;9.60;;
52718;SDS011;38616;42.140;24.760;2024-03-02T08:25:59;19.08;;;9.98;;
52718;SDS011;38616;42.140;24.760;2024-03-02T08:28:25;24.52;;;11.70;;
52718;SDS011;38616;42.140;24.760;2024-03-02T08:30:51;21.27;;;10.38;;
52718;SDS011;38616;42.140;24.760;2024-03-02T08:33:16;24.00;;;11.00;;
52718;SDS011;38616;42.140;24.760;2024-03-02T08:35:42;20.10;;;9.63;;
52718;SDS011;38616;42.140;24.760;2024-03-02T08:38:07;21.48;;;11.50;;
52718;SDS011;38616;42.140;24.760;2024-03-02T08:40:33;22.00;;;10.02;;
52718;SDS011;38616;42.140;24.760;2024-03-02T08:42:58;25.77;;;11.98;;
52718;SDS011;38616;42.140;24.760;2024-03-02T08:45:24;24.20;;;11.32;;
52718;SDS011;38616;42.140;24.760;2024-03-02T08:47:49;23.83;;;12.25;;
52718;SDS011;38616;42.140;24.760;2024-03-02T08:50:15;23.83;;;11.90;;
52718;SDS011;38616;42.140;24.760;2024-03-02T08:52:40;26.42;;;11.50;;
52718;SDS011;38616;42.140;24.760;2024-03-02T08:55:06;25.75;;;12.63;;
52718;SDS011;38616;42.140;24.760;2024-03-02T08:57:32;26.60;;;13.35;;
52718;SDS011;38616;42.140;24.760;2024-03-02T08:59:58;26.05;;;12.10;;
52718;SDS011;38616;42.140;24.760;2024-03-02T09:02:24;27.27;;;12.02;;
52718;SDS011;38616;42.140;24.760;2024-03-02T09:04:50;31.90;;;11.75;;
52718;SDS011;38616;42.140;24.760;2024-03-02T09:07:16;25.70;;;11.70;;
52718;SDS011;38616;42.140;24.760;2024-03-02T09:09:41;27.23;;;13.85;;
52718;SDS011;38616;42.140;24.760;2024-03-02T09:12:07;33.35;;;12.70;;
52718;SDS011;38616;42.140;24.760;2024-03-02T09:14:33;26.95;;;12.23;;
52718;SDS011;38616;42.140;24.760;2024-03-02T09:17:00;33.22;;;14.43;;
52718;SDS011;38616;42.140;24.760;2024-03-02T09:19:25;30.92;;;13.18;;
52718;SDS011;38616;42.140;24.760;2024-03-02T09:21:51;29.77;;;14.05;;
52718;SDS011;38616;42.140;24.760;2024-03-02T09:24:16;33.83;;;13.77;;
52718;SDS011;38616;42.140;24.760;2024-03-02T09:26:41;29.83;;;13.57;;
52718;SDS011;38616;42.140;24.760;2024-03-02T09:29:07;36.95;;;15.90;;
52718;SDS011;38616;42.140;24.760;2024-03-02T09:31:38;33.15;;;13.25;;
52718;SDS011;38616;42.140;24.760;2024-03-02T09:34:07;28.73;;;13.13;;
52718;SDS011;38616;42.140;24.760;2024-03-02T09:36:33;31.27;;;13.60;;
52718;SDS011;38616;42.140;24.760;2024-03-02T09:38:58;34.40;;;14.15;;
52718;SDS011;38616;42.140;24.760;2024-03-02T09:41:24;30.55;;;15.25;;
52718;SDS011;38616;42.140;24.760;2024-03-02T09:43:51;31.70;;;16.83;;
52718;SDS011;38616;42.140;24.760;2024-03-02T09:46:17;30.98;;;14.60;;
52718;SDS011;38616;42.140;24.760;2024-03-02T09:48:46;30.80;;;14.50;;
52718;SDS011;38616;42.140;24.760;2024-03-02T09:51:11;27.02;;;13.50;;
52718;SDS011;38616;42.140;24.760;2024-03-02T09:53:37;32.65;;;14.93;;
52718;SDS011;38616;42.140;24.760;2024-03-02T09:56:03;28.17;;;13.43;;
52718;SDS011;38616;42.140;24.760;2024-03-02T09:58:29;30.83;;;14.45;;
52718;SDS011;38616;42.140;24.760;2024-03-02T10:00:55;35.00;;;16.50;;
52718;SDS011;38616;42.140;24.760;2024-03-02T10:03:21;32.33;;;15.32;;
52718;SDS011;38616;42.140;24.760;2024-03-02T10:05:48;37.42;;;16.80;;
52718;SDS011;38616;42.140;24.760;2024-03-02T10:08:13;32.92;;;16.40;;
52718;SDS011;38616;42.140;24.760;2024-03-02T10:10:39;28.08;;;15.57;;
52718;SDS011;38616;42.140;24.760;2024-03-02T10:13:08;31.40;;;14.43;;
52718;SDS011;38616;42.140;24.760;2024-03-02T10:15:37;33.08;;;14.32;;
52718;SDS011;38616;42.140;24.760;2024-03-02T10:18:08;32.60;;;17.23;;
52718;SDS011;38616;42.140;24.760;2024-03-02T10:20:35;36.28;;;16.10;;
52718;SDS011;38616;42.140;24.760;2024-03-02T10:23:11;32.67;;;14.35;;
52718;SDS011;38616;42.140;24.760;2024-03-02T10:25:37;33.78;;;15.13;;
52718;SDS011;38616;42.140;24.760;2024-03-02T10:28:03;37.45;;;16.98;;
52718;SDS011;38616;42.140;24.760;2024-03-02T10:30:32;29.10;;;14.35;;
52718;SDS011;38616;42.140;24.760;2024-03-02T10:32:59;30.30;;;14.60;;
52718;SDS011;38616;42.140;24.760;2024-03-02T10:35:26;25.33;;;12.13;;
52718;SDS011;38616;42.140;24.760;2024-03-02T10:37:51;31.48;;;15.93;;
52718;SDS011;38616;42.140;24.760;2024-03-02T10:40:18;41.25;;;18.15;;
52718;SDS011;38616;42.140;24.760;2024-03-02T10:42:46;30.77;;;16.00;;
52718;SDS011;38616;42.140;24.760;2024-03-02T10:45:14;31.38;;;14.60;;
52718;SDS011;38616;42.140;24.760;2024-03-02T10:47:42;31.45;;;15.50;;
52718;SDS011;38616;42.140;24.760;2024-03-02T10:50:08;32.40;;;14.82;;
52718;SDS011;38616;42.140;24.760;2024-03-02T10:52:37;32.97;;;15.05;;
52718;SDS011;38616;42.140;24.760;2024-03-02T10:55:06;31.25;;;15.13;;
52718;SDS011;38616;42.140;24.760;2024-03-02T10:57:40;34.00;;;14.85;;
52718;SDS011;38616;42.140;24.760;2024-03-02T11:00:19;34.17;;;16.17;;
52718;SDS011;38616;42.140;24.760;2024-03-02T11:02:56;34.53;;;16.73;;
52718;SDS011;38616;42.140;24.760;2024-03-02T11:07:53;39.28;;;17.58;;
52718;SDS011;38616;42.140;24.760;2024-03-02T11:10:26;36.58;;;19.30;;
52718;SDS011;38616;42.140;24.760;2024-03-02T11:12:56;38.55;;;19.10;;
52718;SDS011;38616;42.140;24.760;2024-03-02T11:15:27;34.65;;;18.38;;
52718;SDS011;38616;42.140;24.760;2024-03-02T11:17:52;38.15;;;17.33;;
52718;SDS011;38616;42.140;24.760;2024-03-02T11:20:19;35.15;;;17.10;;
52718;SDS011;38616;42.140;24.760;2024-03-02T11:22:45;42.33;;;19.08;;
52718;SDS011;38616;42.140;24.760;2024-03-02T11:25:24;37.30;;;18.10;;
52718;SDS011;38616;42.140;24.760;2024-03-02T11:32:56;35.67;;;17.80;;
52718;SDS011;38616;42.140;24.760;2024-03-02T11:35:23;34.08;;;17.40;;
52718;SDS011;38616;42.140;24.760;2024-03-02T11:37:50;31.75;;;17.52;;
52718;SDS011;38616;42.140;24.760;2024-03-02T11:40:21;36.17;;;18.30;;
52718;SDS011;38616;42.140;24.760;2024-03-02T11:42:47;40.17;;;17.52;;
52718;SDS011;38616;42.140;24.760;2024-03-02T11:45:16;33.25;;;17.90;;
52718;SDS011;38616;42.140;24.760;2024-03-02T11:47:46;38.70;;;18.70;;
52718;SDS011;38616;42.140;24.760;2024-03-02T11:50:15;36.78;;;20.25;;
52718;SDS011;38616;42.140;24.760;2024-03-02T11:52:41;37.38;;;18.30;;
52718;SDS011;38616;42.140;24.760;2024-03-02T11:55:07;40.92;;;19.70;;
52718;SDS011;38616;42.140;24.760;2024-03-02T11:57:34;23.17;;;12.10;;
52718;SDS011;38616;42.140;24.760;2024-03-02T12:00:00;31.23;;;15.80;;
52718;SDS011;38616;42.140;24.760;2024-03-02T12:02:28;24.25;;;13.65;;
52718;SDS011;38616;42.140;24.760;2024-03-02T12:04:54;22.98;;;14.07;;
52718;SDS011;38616;42.140;24.760;2024-03-02T12:07:20;29.48;;;14.55;;
52718;SDS011;38616;42.140;24.760;2024-03-02T12:09:47;23.73;;;13.15;;
52718;SDS011;38616;42.140;24.760;2024-03-02T12:12:12;29.25;;;15.43;;
52718;SDS011;38616;42.140;24.760;2024-03-02T12:14:49;28.83;;;15.65;;
52718;SDS011;38616;42.140;24.760;2024-03-02T12:17:16;26.40;;;14.05;;
52718;SDS011;38616;42.140;24.760;2024-03-02T12:19:41;30.15;;;14.82;;
52718;SDS011;38616;42.140;24.760;2024-03-02T12:22:07;23.25;;;13.98;;
52718;SDS011;38616;42.140;24.760;2024-03-02T12:24:32;22.33;;;11.65;;
52718;SDS011;38616;42.140;24.760;2024-03-02T12:26:58;23.58;;;13.27;;
52718;SDS011;38616;42.140;24.760;2024-03-02T12:29:24;23.83;;;13.27;;
52718;SDS011;38616;42.140;24.760;2024-03-02T12:31:53;22.77;;;13.30;;
52718;SDS011;38616;42.140;24.760;2024-03-02T12:34:18;27.00;;;14.75;;
52718;SDS011;38616;42.140;24.760;2024-03-02T12:36:47;26.52;;;14.55;;
52718;SDS011;38616;42.140;24.760;2024-03-02T12:39:15;27.08;;;16.30;;
52718;SDS011;38616;42.140;24.760;2024-03-02T12:41:41;23.90;;;13.83;;
52718;SDS011;38616;42.140;24.760;2024-03-02T12:44:07;22.45;;;11.32;;
52718;SDS011;38616;42.140;24.760;2024-03-02T12:46:33;29.05;;;13.98;;
52718;SDS011;38616;42.140;24.760;2024-03-02T12:49:10;30.85;;;16.90;;
52718;SDS011;38616;42.140;24.760;2024-03-02T12:51:39;27.67;;;16.20;;
52718;SDS011;38616;42.140;24.760;2024-03-02T12:54:06;26.63;;;13.85;;
52718;SDS011;38616;42.140;24.760;2024-03-02T12:56:32;23.00;;;13.00;;
52718;SDS011;38616;42.140;24.760;2024-03-02T12:58:58;23.65;;;13.25;;
52718;SDS011;38616;42.140;24.760;2024-03-02T13:01:24;23.13;;;13.73;;
52718;SDS011;38616;42.140;24.760;2024-03-02T13:03:51;25.35;;;14.25;;
52718;SDS011;38616;42.140;24.760;2024-03-02T13:06:18;19.48;;;11.43;;
52718;SDS011;38616;42.140;24.760;2024-03-02T13:08:45;23.15;;;14.63;;
52718;SDS011;38616;42.140;24.760;2024-03-02T13:11:11;24.40;;;14.27;;
52718;SDS011;38616;42.140;24.760;2024-03-02T13:13:38;29.02;;;17.20;;
52718;SDS011;38616;42.140;24.760;2024-03-02T13:16:07;37.65;;;17.65;;
52718;SDS011;38616;42.140;24.760;2024-03-02T13:18:38;29.67;;;17.00;;
52718;SDS011;38616;42.140;24.760;2024-03-02T13:21:04;28.27;;;17.20;;
52718;SDS011;38616;42.140;24.760;2024-03-02T13:23:29;27.35;;;15.18;;
52718;SDS011;38616;42.140;24.760;2024-03-02T13:25:56;27.15;;;16.23;;
52718;SDS011;38616;42.140;24.760;2024-03-02T13:28:23;30.90;;;17.80;;
52718;SDS011;38616;42.140;24.760;2024-03-02T13:30:49;27.48;;;15.85;;
52718;SDS011;38616;42.140;24.760;2024-03-02T13:33:15;29.40;;;17.70;;
52718;SDS011;38616;42.140;24.760;2024-03-02T13:35:40;29.63;;;16.85;;
52718;SDS011;38616;42.140;24.760;2024-03-02T13:38:06;28.08;;;16.10;;
52718;SDS011;38616;42.140;24.760;2024-03-02T13:40:31;27.98;;;16.33;;
52718;SDS011;38616;42.140;24.760;2024-03-02T13:43:00;31.65;;;16.63;;
52718;SDS011;38616;42.140;24.760;2024-03-02T13:45:27;30.17;;;18.48;;
52718;SDS011;38616;42.140;24.760;2024-03-02T13:47:53;33.63;;;19.25;;
52718;SDS011;38616;42.140;24.760;2024-03-02T13:50:18;31.50;;;17.58;;
52718;SDS011;38616;42.140;24.760;2024-03-02T13:52:45;30.65;;;17.65;;
52718;SDS011;38616;42.140;24.760;2024-03-02T13:55:10;28.55;;;16.60;;
52718;SDS011;38616;42.140;24.760;2024-03-02T13:57:36;25.52;;;14.60;;
52718;SDS011;38616;42.140;24.760;2024-03-02T14:00:01;27.88;;;15.88;;
52718;SDS011;38616;42.140;24.760;2024-03-02T14:02:31;27.40;;;16.75;;
52718;SDS011;38616;42.140;24.760;2024-03-02T14:04:57;28.25;;;15.95;;
52718;SDS011;38616;42.140;24.760;2024-03-02T14:07:22;26.67;;;15.23;;
52718;SDS011;38616;42.140;24.760;2024-03-02T14:09:51;24.88;;;13.70;;
52718;SDS011;38616;42.140;24.760;2024-03-02T14:12:16;27.17;;;15.00;;
52718;SDS011;38616;42.140;24.760;2024-03-02T14:14:42;23.10;;;12.80;;
52718;SDS011;38616;42.140;24.760;2024-03-02T14:17:07;25.73;;;13.13;;